sensor_id;sensor_type;location;lat;lon;timestamp;P1;durP1;ratioP1;P2;durP2;ratioP2
61397;SDS011;47267;48.130;-2.040;2023-11-22T00:01:55;3.78;;;3.05;;
61397;SDS011;47267;48.130;-2.040;2023-11-22T00:04:21;3.45;;;2.80;;
61397;SDS011;47267;48.130;-2.040;2023-11-22T00:06:46;4.72;;;3.10;;
61397;SDS011;47267;48.130;-2.040;2023-11-22T00:09:12;4.03;;;3.05;;
61397;SDS011;47267;48.130;-2.040;2023-11-22T00:11:38;4.25;;;2.72;;
61397;SDS011;47267;48.130;-2.040;2023-11-22T00:14:04;3.60;;;2.60;;
61397;SDS011;47267;48.130;-2.040;2023-11-22T00:16:29;3.40;;;2.55;;
61397;SDS011;47267;48.130;-2.040;2023-11-22T00:18:55;4.57;;;2.50;;
61397;SDS011;47267;48.130;-2.040;2023-11-22T00:21:21;3.20;;;2.70;;
61397;SDS011;47267;48.130;-2.040;2023-11-22T00:23:46;4.50;;;2.42;;
61397;SDS011;47267;48.130;-2.040;2023-11-22T00:26:12;2.92;;;2.55;;
61397;SDS011;47267;48.130;-2.040;2023-11-22T00:28:38;3.65;;;2.60;;
61397;SDS011;47267;48.130;-2.040;2023-11-22T00:31:03;4.13;;;2.30;;
61397;SDS011;47267;48.130;-2.040;2023-11-22T00:33:29;3.33;;;2.63;;
61397;SDS011;47267;48.130;-2.040;2023-11-22T00:35:56;2.92;;;2.40;;
61397;SDS011;47267;48.130;-2.040;2023-11-22T00:38:23;4.65;;;2.50;;
61397;SDS011;47267;48.130;-2.040;2023-11-22T00:40:49;3.47;;;2.53;;
61397;SDS011;47267;48.130;-2.040;2023-11-22T00:43:15;3.53;;;2.25;;
61397;SDS011;47267;48.130;-2.040;2023-11-22T00:45:41;3.78;;;2.55;;
61397;SDS011;47267;48.130;-2.040;2023-11-22T00:48:06;3.80;;;2.60;;
61397;SDS011;47267;48.130;-2.040;2023-11-22T00:50:32;2.88;;;2.30;;
61397;SDS011;47267;48.130;-2.040;2023-11-22T00:52:58;3.92;;;2.40;;
61397;SDS011;47267;48.130;-2.040;2023-11-22T00:55:26;3.80;;;2.35;;
61397;SDS011;47267;48.130;-2.040;2023-11-22T00:57:52;3.55;;;1.98;;
61397;SDS011;47267;48.130;-2.040;2023-11-22T01:00:18;3.08;;;2.10;;
61397;SDS011;47267;48.130;-2.040;2023-11-22T01:02:43;2.80;;;2.03;;
61397;SDS011;47267;48.130;-2.040;2023-11-22T01:05:09;4.53;;;2.42;;
61397;SDS011;47267;48.130;-2.040;2023-11-22T01:07:38;3.17;;;2.10;;
61397;SDS011;47267;48.130;-2.040;2023-11-22T01:10:04;2.72;;;2.10;;
61397;SDS011;47267;48.130;-2.040;2023-11-22T01:12:31;3.97;;;2.15;;
61397;SDS011;47267;48.130;-2.040;2023-11-22T01:14:57;2.63;;;2.20;;
61397;SDS011;47267;48.130;-2.040;2023-11-22T01:17:22;3.55;;;2.10;;
61397;SDS011;47267;48.130;-2.040;2023-11-22T01:19:49;3.13;;;1.92;;
61397;SDS011;47267;48.130;-2.040;2023-11-22T01:22:16;2.58;;;1.67;;
61397;SDS011;47267;48.130;-2.040;2023-11-22T01:24:42;3.30;;;2.08;;
61397;SDS011;47267;48.130;-2.040;2023-11-22T01:27:08;3.47;;;2.25;;
61397;SDS011;47267;48.130;-2.040;2023-11-22T01:29:34;2.78;;;2.08;;
61397;SDS011;47267;48.130;-2.040;2023-11-22T01:32:00;3.28;;;2.20;;
61397;SDS011;47267;48.130;-2.040;2023-11-22T01:34:26;4.10;;;1.90;;
61397;SDS011;47267;48.130;-2.040;2023-11-22T01:36:51;3.20;;;2.08;;
61397;SDS011;47267;48.130;-2.040;2023-11-22T01:39:17;2.70;;;1.85;;
61397;SDS011;47267;48.130;-2.040;2023-11-22T01:41:46;3.25;;;1.88;;
61397;SDS011;47267;48.130;-2.040;2023-11-22T01:44:14;1.90;;;1.67;;
61397;SDS011;47267;48.130;-2.040;2023-11-22T01:46:43;2.70;;;1.88;;
61397;SDS011;47267;48.130;-2.040;2023-11-22T01:49:10;2.95;;;1.90;;
61397;SDS011;47267;48.130;-2.040;2023-11-22T01:51:39;3.17;;;1.98;;
61397;SDS011;47267;48.130;-2.040;2023-11-22T01:54:06;3.42;;;1.90;;
61397;SDS011;47267;48.130;-2.040;2023-11-22T01:56:33;2.50;;;1.88;;
61397;SDS011;47267;48.130;-2.040;2023-11-22T01:59:02;2.92;;;1.67;;
61397;SDS011;47267;48.130;-2.040;2023-11-22T02:01:29;2.80;;;1.80;;
61397;SDS011;47267;48.130;-2.040;2023-11-22T02:03:56;2.72;;;1.63;;
61397;SDS011;47267;48.130;-2.040;2023-11-22T02:06:22;3.13;;;2.00;;
61397;SDS011;47267;48.130;-2.040;2023-11-22T02:08:49;3.92;;;1.90;;
61397;SDS011;47267;48.130;-2.040;2023-11-22T02:11:18;3.45;;;1.77;;
61397;SDS011;47267;48.130;-2.040;2023-11-22T02:13:47;2.97;;;1.75;;
61397;SDS011;47267;48.130;-2.040;2023-11-22T02:16:14;2.47;;;1.63;;
61397;SDS011;47267;48.130;-2.040;2023-11-22T02:18:42;3.45;;;1.83;;
61397;SDS011;47267;48.130;-2.040;2023-11-22T02:21:09;3.03;;;1.75;;
61397;SDS011;47267;48.130;-2.040;2023-11-22T02:23:35;3.25;;;1.98;;
61397;SDS011;47267;48.130;-2.040;2023-11-22T02:26:01;3.15;;;1.88;;
61397;SDS011;47267;48.130;-2.040;2023-11-22T02:28:27;3.08;;;1.80;;
61397;SDS011;47267;48.130;-2.040;2023-11-22T02:30:53;4.10;;;1.98;;
61397;SDS011;47267;48.130;-2.040;2023-11-22T02:33:19;3.75;;;2.10;;
61397;SDS011;47267;48.130;-2.040;2023-11-22T02:35:45;3.97;;;1.95;;
61397;SDS011;47267;48.130;-2.040;2023-11-22T02:38:11;2.78;;;1.60;;
61397;SDS011;47267;48.130;-2.040;2023-11-22T02:40:36;3.10;;;1.75;;
61397;SDS011;47267;48.130;-2.040;2023-11-22T02:43:03;3.40;;;1.77;;
61397;SDS011;47267;48.130;-2.040;2023-11-22T02:47:59;3.80;;;1.85;;
61397;SDS011;47267;48.130;-2.040;2023-11-22T02:50:28;3.88;;;2.00;;
61397;SDS011;47267;48.130;-2.040;2023-11-22T02:52:54;3.58;;;1.52;;
61397;SDS011;47267;48.130;-2.040;2023-11-22T02:55:20;3.50;;;1.80;;
61397;SDS011;47267;48.130;-2.040;2023-11-22T02:57:46;3.08;;;1.80;;
61397;SDS011;47267;48.130;-2.040;2023-11-22T03:00:11;3.17;;;1.73;;
61397;SDS011;47267;48.130;-2.040;2023-11-22T03:02:40;2.85;;;1.90;;
61397;SDS011;47267;48.130;-2.040;2023-11-22T03:05:09;2.85;;;1.65;;
61397;SDS011;47267;48.130;-2.040;2023-11-22T03:07:35;3.35;;;1.77;;
61397;SDS011;47267;48.130;-2.040;2023-11-22T03:10:02;3.47;;;1.90;;
61397;SDS011;47267;48.130;-2.040;2023-11-22T03:12:28;2.67;;;1.50;;
61397;SDS011;47267;48.130;-2.040;2023-11-22T03:14:54;4.13;;;1.90;;
61397;SDS011;47267;48.130;-2.040;2023-11-22T03:17:24;3.03;;;1.60;;
61397;SDS011;47267;48.130;-2.040;2023-11-22T03:19:51;3.67;;;1.50;;
61397;SDS011;47267;48.130;-2.040;2023-11-22T03:22:16;2.72;;;1.60;;
61397;SDS011;47267;48.130;-2.040;2023-11-22T03:24:42;3.05;;;1.90;;
61397;SDS011;47267;48.130;-2.040;2023-11-22T03:27:08;2.47;;;1.45;;
61397;SDS011;47267;48.130;-2.040;2023-11-22T03:29:35;2.88;;;1.65;;
61397;SDS011;47267;48.130;-2.040;2023-11-22T03:32:03;2.72;;;1.58;;
61397;SDS011;47267;48.130;-2.040;2023-11-22T03:34:29;4.93;;;1.83;;
61397;SDS011;47267;48.130;-2.040;2023-11-22T03:36:54;3.03;;;1.83;;
61397;SDS011;47267;48.130;-2.040;2023-11-22T03:39:20;2.83;;;1.65;;
61397;SDS011;47267;48.130;-2.040;2023-11-22T03:41:46;2.78;;;1.70;;
61397;SDS011;47267;48.130;-2.040;2023-11-22T03:44:11;4.00;;;1.88;;
61397;SDS011;47267;48.130;-2.040;2023-11-22T03:46:38;2.22;;;1.40;;
61397;SDS011;47267;48.130;-2.040;2023-11-22T03:49:04;3.15;;;1.45;;
61397;SDS011;47267;48.130;-2.040;2023-11-22T03:51:32;3.25;;;1.33;;
61397;SDS011;47267;48.130;-2.040;2023-11-22T03:53:58;2.20;;;1.42;;
61397;SDS011;47267;48.130;-2.040;2023-11-22T03:56:24;3.03;;;1.45;;
61397;SDS011;47267;48.130;-2.040;2023-11-22T03:58:50;2.85;;;1.30;;
61397;SDS011;47267;48.130;-2.040;2023-11-22T04:01:15;3.85;;;1.73;;
61397;SDS011;47267;48.130;-2.040;2023-11-22T04:03:41;2.92;;;1.30;;
61397;SDS011;47267;48.130;-2.040;2023-11-22T04:06:07;2.83;;;1.30;;
61397;SDS011;47267;48.130;-2.040;2023-11-22T04:08:33;4.03;;;1.67;;
61397;SDS011;47267;48.130;-2.040;2023-11-22T04:10:59;2.20;;;1.30;;
61397;SDS011;47267;48.130;-2.040;2023-11-22T04:13:25;3.20;;;1.48;;
61397;SDS011;47267;48.130;-2.040;2023-11-22T04:15:51;2.33;;;1.23;;
61397;SDS011;47267;48.130;-2.040;2023-11-22T04:18:16;2.90;;;1.30;;
61397;SDS011;47267;48.130;-2.040;2023-11-22T04:20:42;2.20;;;1.35;;
61397;SDS011;47267;48.130;-2.040;2023-11-22T04:23:08;3.92;;;1.50;;
61397;SDS011;47267;48.130;-2.040;2023-11-22T04:25:38;2.92;;;1.40;;
61397;SDS011;47267;48.130;-2.040;2023-11-22T04:28:06;2.05;;;1.27;;
61397;SDS011;47267;48.130;-2.040;2023-11-22T04:30:33;2.72;;;1.38;;
61397;SDS011;47267;48.130;-2.040;2023-11-22T04:32:59;2.75;;;1.45;;
61397;SDS011;47267;48.130;-2.040;2023-11-22T04:35:25;2.75;;;1.30;;
61397;SDS011;47267;48.130;-2.040;2023-11-22T04:37:50;2.55;;;1.23;;
61397;SDS011;47267;48.130;-2.040;2023-11-22T04:40:16;2.85;;;1.30;;
61397;SDS011;47267;48.130;-2.040;2023-11-22T04:42:42;3.28;;;1.27;;
61397;SDS011;47267;48.130;-2.040;2023-11-22T04:45:08;2.58;;;1.58;;
61397;SDS011;47267;48.130;-2.040;2023-11-22T04:47:34;3.38;;;1.45;;
61397;SDS011;47267;48.130;-2.040;2023-11-22T04:50:00;3.92;;;1.67;;
61397;SDS011;47267;48.130;-2.040;2023-11-22T04:52:26;3.58;;;1.25;;
61397;SDS011;47267;48.130;-2.040;2023-11-22T04:54:52;3.80;;;1.85;;
61397;SDS011;47267;48.130;-2.040;2023-11-22T04:57:17;3.65;;;1.30;;
61397;SDS011;47267;48.130;-2.040;2023-11-22T04:59:43;2.20;;;1.00;;
61397;SDS011;47267;48.130;-2.040;2023-11-22T05:02:10;2.03;;;1.17;;
61397;SDS011;47267;48.130;-2.040;2023-11-22T05:04:36;2.55;;;1.50;;
61397;SDS011;47267;48.130;-2.040;2023-11-22T05:07:02;2.10;;;1.15;;
61397;SDS011;47267;48.130;-2.040;2023-11-22T05:09:28;2.10;;;1.17;;
61397;SDS011;47267;48.130;-2.040;2023-11-22T05:11:54;3.33;;;1.17;;
61397;SDS011;47267;48.130;-2.040;2023-11-22T05:14:20;4.63;;;1.60;;
61397;SDS011;47267;48.130;-2.040;2023-11-22T05:16:45;2.67;;;1.10;;
61397;SDS011;47267;48.130;-2.040;2023-11-22T05:19:11;1.38;;;1.00;;
61397;SDS011;47267;48.130;-2.040;2023-11-22T05:21:37;2.70;;;1.20;;
61397;SDS011;47267;48.130;-2.040;2023-11-22T05:24:03;1.75;;;1.13;;
61397;SDS011;47267;48.130;-2.040;2023-11-22T05:26:29;2.85;;;1.65;;
61397;SDS011;47267;48.130;-2.040;2023-11-22T05:28:54;3.58;;;1.10;;
61397;SDS011;47267;48.130;-2.040;2023-11-22T05:31:20;3.10;;;1.10;;
61397;SDS011;47267;48.130;-2.040;2023-11-22T05:33:46;3.58;;;1.30;;
61397;SDS011;47267;48.130;-2.040;2023-11-22T05:36:12;3.25;;;1.27;;
61397;SDS011;47267;48.130;-2.040;2023-11-22T05:38:37;2.83;;;1.13;;
61397;SDS011;47267;48.130;-2.040;2023-11-22T05:41:04;3.13;;;1.30;;
61397;SDS011;47267;48.130;-2.040;2023-11-22T05:43:30;2.25;;;1.05;;
61397;SDS011;47267;48.130;-2.040;2023-11-22T05:45:56;2.35;;;1.08;;
61397;SDS011;47267;48.130;-2.040;2023-11-22T05:48:22;2.22;;;1.20;;
61397;SDS011;47267;48.130;-2.040;2023-11-22T05:50:47;2.10;;;1.10;;
61397;SDS011;47267;48.130;-2.040;2023-11-22T05:53:13;2.08;;;1.10;;
61397;SDS011;47267;48.130;-2.040;2023-11-22T05:55:47;3.63;;;1.27;;
61397;SDS011;47267;48.130;-2.040;2023-11-22T05:58:14;2.47;;;1.20;;
61397;SDS011;47267;48.130;-2.040;2023-11-22T06:00:42;3.22;;;1.35;;
61397;SDS011;47267;48.130;-2.040;2023-11-22T06:03:11;1.80;;;1.02;;
61397;SDS011;47267;48.130;-2.040;2023-11-22T06:05:38;2.20;;;0.93;;
61397;SDS011;47267;48.130;-2.040;2023-11-22T06:08:04;2.20;;;0.80;;
61397;SDS011;47267;48.130;-2.040;2023-11-22T06:10:30;2.47;;;1.15;;
61397;SDS011;47267;48.130;-2.040;2023-11-22T06:12:55;2.38;;;1.30;;
61397;SDS011;47267;48.130;-2.040;2023-11-22T06:15:21;0.98;;;0.80;;
61397;SDS011;47267;48.130;-2.040;2023-11-22T06:17:48;2.22;;;0.90;;
61397;SDS011;47267;48.130;-2.040;2023-11-22T06:20:14;2.97;;;1.08;;
61397;SDS011;47267;48.130;-2.040;2023-11-22T06:22:40;2.75;;;1.10;;
61397;SDS011;47267;48.130;-2.040;2023-11-22T06:25:10;1.75;;;0.90;;
61397;SDS011;47267;48.130;-2.040;2023-11-22T06:27:37;2.55;;;1.15;;
61397;SDS011;47267;48.130;-2.040;2023-11-22T06:30:03;3.67;;;1.02;;
61397;SDS011;47267;48.130;-2.040;2023-11-22T06:32:31;4.45;;;1.38;;
61397;SDS011;47267;48.130;-2.040;2023-11-22T06:34:57;2.03;;;1.20;;
61397;SDS011;47267;48.130;-2.040;2023-11-22T06:37:23;6.00;;;1.38;;
61397;SDS011;47267;48.130;-2.040;2023-11-22T06:39:48;4.10;;;0.98;;
61397;SDS011;47267;48.130;-2.040;2023-11-22T06:42:15;2.10;;;0.98;;
61397;SDS011;47267;48.130;-2.040;2023-11-22T06:44:41;3.05;;;1.20;;
61397;SDS011;47267;48.130;-2.040;2023-11-22T06:47:07;3.35;;;1.10;;
61397;SDS011;47267;48.130;-2.040;2023-11-22T06:49:33;3.33;;;1.00;;
61397;SDS011;47267;48.130;-2.040;2023-11-22T06:51:59;5.88;;;1.80;;
61397;SDS011;47267;48.130;-2.040;2023-11-22T06:54:25;5.95;;;1.38;;
61397;SDS011;47267;48.130;-2.040;2023-11-22T06:56:51;5.55;;;1.60;;
61397;SDS011;47267;48.130;-2.040;2023-11-22T06:59:17;5.43;;;1.80;;
61397;SDS011;47267;48.130;-2.040;2023-11-22T07:01:43;4.38;;;1.67;;
61397;SDS011;47267;48.130;-2.040;2023-11-22T07:04:10;9.68;;;1.80;;
61397;SDS011;47267;48.130;-2.040;2023-11-22T07:06:36;7.03;;;1.70;;
61397;SDS011;47267;48.130;-2.040;2023-11-22T07:09:05;7.82;;;1.83;;
61397;SDS011;47267;48.130;-2.040;2023-11-22T07:11:34;5.47;;;1.55;;
61397;SDS011;47267;48.130;-2.040;2023-11-22T07:14:02;3.47;;;1.70;;
61397;SDS011;47267;48.130;-2.040;2023-11-22T07:16:29;4.35;;;1.98;;
61397;SDS011;47267;48.130;-2.040;2023-11-22T07:18:55;3.90;;;1.75;;
61397;SDS011;47267;48.130;-2.040;2023-11-22T07:21:22;4.38;;;1.42;;
61397;SDS011;47267;48.130;-2.040;2023-11-22T07:23:48;5.03;;;1.55;;
61397;SDS011;47267;48.130;-2.040;2023-11-22T07:26:14;6.05;;;1.98;;
61397;SDS011;47267;48.130;-2.040;2023-11-22T07:28:40;7.38;;;1.83;;
61397;SDS011;47267;48.130;-2.040;2023-11-22T07:31:09;2.90;;;1.40;;
61397;SDS011;47267;48.130;-2.040;2023-11-22T07:33:36;5.70;;;1.85;;
61397;SDS011;47267;48.130;-2.040;2023-11-22T07:36:04;5.35;;;1.80;;
61397;SDS011;47267;48.130;-2.040;2023-11-22T07:38:30;4.88;;;1.80;;
61397;SDS011;47267;48.130;-2.040;2023-11-22T07:40:57;4.55;;;1.70;;
61397;SDS011;47267;48.130;-2.040;2023-11-22T07:43:23;4.65;;;1.55;;
61397;SDS011;47267;48.130;-2.040;2023-11-22T07:45:49;4.65;;;1.65;;
61397;SDS011;47267;48.130;-2.040;2023-11-22T07:48:16;4.68;;;1.60;;
61397;SDS011;47267;48.130;-2.040;2023-11-22T07:50:41;4.28;;;1.42;;
61397;SDS011;47267;48.130;-2.040;2023-11-22T07:53:09;5.32;;;1.45;;
61397;SDS011;47267;48.130;-2.040;2023-11-22T07:55:37;3.28;;;1.38;;
61397;SDS011;47267;48.130;-2.040;2023-11-22T07:58:03;4.55;;;1.77;;
61397;SDS011;47267;48.130;-2.040;2023-11-22T08:00:31;4.38;;;1.73;;
61397;SDS011;47267;48.130;-2.040;2023-11-22T08:02:59;3.95;;;1.60;;
61397;SDS011;47267;48.130;-2.040;2023-11-22T08:05:30;3.22;;;1.40;;
61397;SDS011;47267;48.130;-2.040;2023-11-22T08:08:05;3.83;;;1.67;;
61397;SDS011;47267;48.130;-2.040;2023-11-22T08:10:36;4.30;;;1.60;;
61397;SDS011;47267;48.130;-2.040;2023-11-22T08:13:02;6.60;;;1.60;;
61397;SDS011;47267;48.130;-2.040;2023-11-22T08:15:28;6.18;;;1.80;;
61397;SDS011;47267;48.130;-2.040;2023-11-22T08:17:56;5.10;;;1.75;;
61397;SDS011;47267;48.130;-2.040;2023-11-22T08:20:23;4.63;;;1.58;;
61397;SDS011;47267;48.130;-2.040;2023-11-22T08:22:50;5.95;;;1.70;;
61397;SDS011;47267;48.130;-2.040;2023-11-22T08:25:16;4.63;;;1.58;;
61397;SDS011;47267;48.130;-2.040;2023-11-22T08:27:43;4.47;;;1.80;;
61397;SDS011;47267;48.130;-2.040;2023-11-22T08:30:09;4.72;;;1.50;;
61397;SDS011;47267;48.130;-2.040;2023-11-22T08:32:41;4.57;;;1.42;;
61397;SDS011;47267;48.130;-2.040;2023-11-22T08:35:08;4.50;;;1.52;;
61397;SDS011;47267;48.130;-2.040;2023-11-22T08:37:35;2.92;;;1.42;;
61397;SDS011;47267;48.130;-2.040;2023-11-22T08:40:03;3.50;;;1.33;;
61397;SDS011;47267;48.130;-2.040;2023-11-22T08:42:30;3.88;;;1.60;;
61397;SDS011;47267;48.130;-2.040;2023-11-22T08:44:56;5.07;;;1.88;;
61397;SDS011;47267;48.130;-2.040;2023-11-22T08:47:21;7.15;;;1.70;;
61397;SDS011;47267;48.130;-2.040;2023-11-22T08:49:47;4.18;;;1.70;;
61397;SDS011;47267;48.130;-2.040;2023-11-22T08:52:13;3.70;;;1.70;;
61397;SDS011;47267;48.130;-2.040;2023-11-22T08:54:39;4.07;;;1.70;;
61397;SDS011;47267;48.130;-2.040;2023-11-22T08:57:06;3.55;;;1.42;;
61397;SDS011;47267;48.130;-2.040;2023-11-22T08:59:32;4.90;;;1.77;;
61397;SDS011;47267;48.130;-2.040;2023-11-22T09:02:03;4.35;;;1.98;;
61397;SDS011;47267;48.130;-2.040;2023-11-22T09:04:29;3.58;;;1.67;;
61397;SDS011;47267;48.130;-2.040;2023-11-22T09:06:57;4.93;;;1.50;;
61397;SDS011;47267;48.130;-2.040;2023-11-22T09:09:22;2.80;;;1.50;;
61397;SDS011;47267;48.130;-2.040;2023-11-22T09:11:56;4.43;;;1.52;;
61397;SDS011;47267;48.130;-2.040;2023-11-22T09:14:22;3.42;;;1.58;;
61397;SDS011;47267;48.130;-2.040;2023-11-22T09:16:49;2.55;;;1.20;;
61397;SDS011;47267;48.130;-2.040;2023-11-22T09:19:19;3.63;;;1.60;;
61397;SDS011;47267;48.130;-2.040;2023-11-22T09:21:46;3.00;;;1.42;;
61397;SDS011;47267;48.130;-2.040;2023-11-22T09:24:11;2.95;;;1.40;;
61397;SDS011;47267;48.130;-2.040;2023-11-22T09:26:37;2.88;;;1.40;;
61397;SDS011;47267;48.130;-2.040;2023-11-22T09:29:03;4.82;;;1.50;;
61397;SDS011;47267;48.130;-2.040;2023-11-22T09:31:30;3.25;;;1.48;;
61397;SDS011;47267;48.130;-2.040;2023-11-22T09:33:55;2.78;;;1.40;;
61397;SDS011;47267;48.130;-2.040;2023-11-22T09:36:22;3.22;;;1.98;;
61397;SDS011;47267;48.130;-2.040;2023-11-22T09:38:50;3.45;;;1.85;;
61397;SDS011;47267;48.130;-2.040;2023-11-22T09:41:16;2.40;;;1.30;;
61397;SDS011;47267;48.130;-2.040;2023-11-22T09:43:43;3.58;;;1.70;;
61397;SDS011;47267;48.130;-2.040;2023-11-22T09:46:11;4.47;;;1.80;;
61397;SDS011;47267;48.130;-2.040;2023-11-22T09:48:39;2.60;;;1.35;;
61397;SDS011;47267;48.130;-2.040;2023-11-22T09:56:29;4.30;;;1.33;;
61397;SDS011;47267;48.130;-2.040;2023-11-22T09:58:57;3.70;;;1.33;;
61397;SDS011;47267;48.130;-2.040;2023-11-22T10:01:25;2.60;;;1.50;;
61397;SDS011;47267;48.130;-2.040;2023-11-22T10:03:56;3.30;;;1.58;;
61397;SDS011;47267;48.130;-2.040;2023-11-22T10:06:23;3.55;;;1.35;;
61397;SDS011;47267;48.130;-2.040;2023-11-22T10:08:49;4.53;;;1.67;;
61397;SDS011;47267;48.130;-2.040;2023-11-22T10:11:16;3.70;;;1.90;;
61397;SDS011;47267;48.130;-2.040;2023-11-22T10:13:49;3.30;;;1.77;;
61397;SDS011;47267;48.130;-2.040;2023-11-22T10:16:16;3.00;;;1.40;;
61397;SDS011;47267;48.130;-2.040;2023-11-22T10:18:44;3.65;;;1.63;;
61397;SDS011;47267;48.130;-2.040;2023-11-22T10:21:24;3.83;;;1.75;;
61397;SDS011;47267;48.130;-2.040;2023-11-22T10:26:18;2.70;;;1.60;;
61397;SDS011;47267;48.130;-2.040;2023-11-22T10:28:44;3.30;;;1.42;;
61397;SDS011;47267;48.130;-2.040;2023-11-22T10:31:10;3.42;;;1.63;;
61397;SDS011;47267;48.130;-2.040;2023-11-22T10:33:40;3.53;;;1.63;;
61397;SDS011;47267;48.130;-2.040;2023-11-22T10:36:07;2.70;;;1.58;;
61397;SDS011;47267;48.130;-2.040;2023-11-22T10:38:33;4.00;;;1.40;;
61397;SDS011;47267;48.130;-2.040;2023-11-22T10:41:03;3.80;;;1.45;;
61397;SDS011;47267;48.130;-2.040;2023-11-22T10:43:33;4.13;;;1.70;;
61397;SDS011;47267;48.130;-2.040;2023-11-22T10:46:01;2.65;;;1.35;;
61397;SDS011;47267;48.130;-2.040;2023-11-22T10:48:28;3.45;;;1.80;;
61397;SDS011;47267;48.130;-2.040;2023-11-22T10:50:55;3.00;;;1.48;;
61397;SDS011;47267;48.130;-2.040;2023-11-22T10:53:31;4.47;;;1.40;;
61397;SDS011;47267;48.130;-2.040;2023-11-22T10:58:37;3.92;;;1.60;;
61397;SDS011;47267;48.130;-2.040;2023-11-22T11:01:09;2.63;;;1.30;;
61397;SDS011;47267;48.130;-2.040;2023-11-22T11:03:36;3.38;;;1.10;;
61397;SDS011;47267;48.130;-2.040;2023-11-22T11:06:06;3.78;;;1.48;;
61397;SDS011;47267;48.130;-2.040;2023-11-22T11:08:38;3.53;;;1.60;;
61397;SDS011;47267;48.130;-2.040;2023-11-22T11:11:04;2.70;;;1.10;;
61397;SDS011;47267;48.130;-2.040;2023-11-22T11:13:31;4.55;;;1.30;;
61397;SDS011;47267;48.130;-2.040;2023-11-22T11:15:57;4.00;;;1.67;;
61397;SDS011;47267;48.130;-2.040;2023-11-22T11:18:24;3.58;;;1.20;;
61397;SDS011;47267;48.130;-2.040;2023-11-22T11:20:56;2.30;;;1.20;;
61397;SDS011;47267;48.130;-2.040;2023-11-22T11:23:24;4.40;;;1.30;;
61397;SDS011;47267;48.130;-2.040;2023-11-22T11:25:58;3.15;;;1.30;;
61397;SDS011;47267;48.130;-2.040;2023-11-22T11:28:41;2.90;;;1.23;;
61397;SDS011;47267;48.130;-2.040;2023-11-22T11:31:12;3.22;;;1.25;;
61397;SDS011;47267;48.130;-2.040;2023-11-22T11:36:22;2.35;;;1.23;;
61397;SDS011;47267;48.130;-2.040;2023-11-22T11:38:50;2.53;;;1.13;;
61397;SDS011;47267;48.130;-2.040;2023-11-22T11:41:22;3.15;;;1.42;;
61397;SDS011;47267;48.130;-2.040;2023-11-22T11:43:54;2.42;;;1.17;;
61397;SDS011;47267;48.130;-2.040;2023-11-22T11:46:21;3.90;;;1.00;;
61397;SDS011;47267;48.130;-2.040;2023-11-22T11:48:54;3.22;;;1.40;;
61397;SDS011;47267;48.130;-2.040;2023-11-22T11:51:23;2.88;;;1.10;;
61397;SDS011;47267;48.130;-2.040;2023-11-22T11:53:50;1.98;;;0.98;;
61397;SDS011;47267;48.130;-2.040;2023-11-22T11:56:17;2.38;;;1.27;;
61397;SDS011;47267;48.130;-2.040;2023-11-22T11:58:43;3.08;;;1.35;;
61397;SDS011;47267;48.130;-2.040;2023-11-22T12:01:13;2.33;;;1.13;;
61397;SDS011;47267;48.130;-2.040;2023-11-22T12:03:41;1.70;;;0.95;;
61397;SDS011;47267;48.130;-2.040;2023-11-22T12:06:08;2.88;;;1.35;;
61397;SDS011;47267;48.130;-2.040;2023-11-22T12:08:34;3.88;;;1.23;;
61397;SDS011;47267;48.130;-2.040;2023-11-22T12:11:03;3.08;;;1.17;;
61397;SDS011;47267;48.130;-2.040;2023-11-22T12:13:32;2.60;;;1.20;;
61397;SDS011;47267;48.130;-2.040;2023-11-22T12:15:58;2.38;;;1.10;;
61397;SDS011;47267;48.130;-2.040;2023-11-22T12:18:24;2.17;;;1.20;;
61397;SDS011;47267;48.130;-2.040;2023-11-22T12:20:56;2.47;;;1.10;;
61397;SDS011;47267;48.130;-2.040;2023-11-22T12:23:25;2.70;;;1.17;;
61397;SDS011;47267;48.130;-2.040;2023-11-22T12:25:55;3.17;;;1.30;;
61397;SDS011;47267;48.130;-2.040;2023-11-22T12:28:27;2.47;;;1.10;;
61397;SDS011;47267;48.130;-2.040;2023-11-22T12:30:54;2.67;;;0.97;;
61397;SDS011;47267;48.130;-2.040;2023-11-22T12:33:19;2.72;;;1.13;;
61397;SDS011;47267;48.130;-2.040;2023-11-22T12:35:46;3.97;;;1.20;;
61397;SDS011;47267;48.130;-2.040;2023-11-22T12:38:13;2.80;;;1.00;;
61397;SDS011;47267;48.130;-2.040;2023-11-22T12:40:47;2.85;;;1.10;;
61397;SDS011;47267;48.130;-2.040;2023-11-22T12:43:13;1.95;;;0.90;;
61397;SDS011;47267;48.130;-2.040;2023-11-22T12:45:41;3.13;;;1.15;;
61397;SDS011;47267;48.130;-2.040;2023-11-22T12:48:20;3.67;;;1.15;;
61397;SDS011;47267;48.130;-2.040;2023-11-22T12:50:48;3.35;;;1.25;;
61397;SDS011;47267;48.130;-2.040;2023-11-22T12:53:14;2.35;;;1.10;;
61397;SDS011;47267;48.130;-2.040;2023-11-22T12:55:44;2.47;;;1.15;;
61397;SDS011;47267;48.130;-2.040;2023-11-22T12:58:13;2.55;;;1.00;;
61397;SDS011;47267;48.130;-2.040;2023-11-22T13:00:39;2.85;;;0.90;;
61397;SDS011;47267;48.130;-2.040;2023-11-22T13:03:08;2.90;;;0.98;;
61397;SDS011;47267;48.130;-2.040;2023-11-22T13:05:41;1.90;;;0.80;;
61397;SDS011;47267;48.130;-2.040;2023-11-22T13:08:08;1.45;;;0.90;;
61397;SDS011;47267;48.130;-2.040;2023-11-22T13:10:43;3.92;;;1.02;;
61397;SDS011;47267;48.130;-2.040;2023-11-22T13:13:11;3.33;;;1.20;;
61397;SDS011;47267;48.130;-2.040;2023-11-22T13:15:37;2.88;;;1.15;;
61397;SDS011;47267;48.130;-2.040;2023-11-22T13:18:05;1.73;;;0.90;;
61397;SDS011;47267;48.130;-2.040;2023-11-22T13:20:31;2.60;;;1.08;;
61397;SDS011;47267;48.130;-2.040;2023-11-22T13:22:57;3.10;;;1.00;;
61397;SDS011;47267;48.130;-2.040;2023-11-22T13:25:25;2.95;;;0.90;;
61397;SDS011;47267;48.130;-2.040;2023-11-22T13:27:51;4.72;;;1.08;;
61397;SDS011;47267;48.130;-2.040;2023-11-22T13:30:18;1.90;;;0.80;;
61397;SDS011;47267;48.130;-2.040;2023-11-22T13:32:47;2.58;;;1.10;;
61397;SDS011;47267;48.130;-2.040;2023-11-22T13:35:14;2.78;;;0.98;;
61397;SDS011;47267;48.130;-2.040;2023-11-22T13:37:43;1.98;;;1.08;;
61397;SDS011;47267;48.130;-2.040;2023-11-22T13:40:20;1.85;;;1.00;;
61397;SDS011;47267;48.130;-2.040;2023-11-22T13:42:50;2.83;;;1.25;;
61397;SDS011;47267;48.130;-2.040;2023-11-22T13:45:19;2.72;;;0.90;;
61397;SDS011;47267;48.130;-2.040;2023-11-22T13:47:46;2.83;;;1.10;;
61397;SDS011;47267;48.130;-2.040;2023-11-22T13:50:14;2.05;;;1.00;;
61397;SDS011;47267;48.130;-2.040;2023-11-22T13:52:44;2.22;;;1.00;;
61397;SDS011;47267;48.130;-2.040;2023-11-22T13:55:12;3.22;;;1.20;;
61397;SDS011;47267;48.130;-2.040;2023-11-22T13:57:38;2.17;;;0.75;;
61397;SDS011;47267;48.130;-2.040;2023-11-22T14:00:05;2.58;;;0.90;;
61397;SDS011;47267;48.130;-2.040;2023-11-22T14:02:35;2.10;;;1.00;;
61397;SDS011;47267;48.130;-2.040;2023-11-22T14:05:01;1.58;;;0.88;;
61397;SDS011;47267;48.130;-2.040;2023-11-22T14:07:28;3.17;;;0.82;;
61397;SDS011;47267;48.130;-2.040;2023-11-22T14:09:54;2.13;;;0.95;;
61397;SDS011;47267;48.130;-2.040;2023-11-22T14:12:20;2.22;;;0.90;;
61397;SDS011;47267;48.130;-2.040;2023-11-22T14:14:46;1.75;;;0.82;;
61397;SDS011;47267;48.130;-2.040;2023-11-22T14:17:11;1.63;;;0.80;;
61397;SDS011;47267;48.130;-2.040;2023-11-22T14:19:39;2.45;;;0.80;;
61397;SDS011;47267;48.130;-2.040;2023-11-22T14:22:05;2.55;;;1.05;;
61397;SDS011;47267;48.130;-2.040;2023-11-22T14:24:33;1.48;;;0.55;;
61397;SDS011;47267;48.130;-2.040;2023-11-22T14:27:02;1.98;;;0.90;;
61397;SDS011;47267;48.130;-2.040;2023-11-22T14:29:28;1.98;;;0.82;;
61397;SDS011;47267;48.130;-2.040;2023-11-22T14:31:54;1.77;;;0.77;;
61397;SDS011;47267;48.130;-2.040;2023-11-22T14:34:20;2.08;;;0.93;;
61397;SDS011;47267;48.130;-2.040;2023-11-22T14:36:46;1.48;;;0.70;;
61397;SDS011;47267;48.130;-2.040;2023-11-22T14:39:11;2.65;;;1.08;;
61397;SDS011;47267;48.130;-2.040;2023-11-22T14:41:39;1.75;;;0.90;;
61397;SDS011;47267;48.130;-2.040;2023-11-22T14:44:05;1.90;;;0.80;;
61397;SDS011;47267;48.130;-2.040;2023-11-22T14:46:31;2.85;;;2.53;;
61397;SDS011;47267;48.130;-2.040;2023-11-22T14:48:57;4.32;;;4.03;;